首页
METAR-TAF:

METAR-TAF

机场 :

阿尔及尔胡阿里·布迈丁机场

阿爾及爾, 阿尔及利亚

纬度: 36-43N, 经度: 003-15E, 海拔: 25米

当前天气观测

该预报发布于24分钟前的19:30 UTC
风速6节,风向西,在西转西南西北之间变化
温度 14°C
湿度 63%
气压 1015 hPa
能见度10公里或以上
少量云层高于2300英尺
散云层高于8000英尺

METAR: DAAG 171930Z 27006KT 250V310 9999 FEW023 SCT080 14/07 Q1015

时间: 20:54 (19:54 UTC)

预报

该预报发布于2小时和54分钟前的17:00 UTC
预报有效从17日的 18点(UTC)到 18日的 18点(UTC)
风速10节,风向西
能见度10公里或以上
少量云层高于2000英尺
散云层高于4000英尺
短暂存在
从 17日的 18点(UTC)到 17日的 24点(UTC)
少量云层高于2000英尺, 塔状积云.
少量云层高于2600英尺, 积雨云.
成为
从 17日的 19点(UTC)到 17日的 21点(UTC)
风速8节,风向南转西南
短暂存在
从 18日的 06点(UTC)到 18日的 18点(UTC)
少量云层高于2300英尺, 塔状积云.
少量云层高于2600英尺, 积雨云.
成为
从 18日的 09点(UTC)到 18日的 12点(UTC)
风速12节,风向西
短暂存在
从 18日的 10点(UTC)到 18日的 16点(UTC)
能見度: 5000
小雨
几率 30% :
短暂存在
从 18日的 12点(UTC)到 18日的 15点(UTC)
能見度: 3000
多云层高于1500英尺
少量云层高于2600英尺, 积雨云.
阵雨

TAF: DAAG 171700Z 1718/1818 26010KT 9999 FEW020 SCT040 TEMPO 1718/1724 FEW020TCU FEW026CB BECMG 1719/1721 20008KT TEMPO 1806/1818 FEW023TCU FEW026CB BECMG 1809/1812 28012KT TEMPO 1810/1816 5000 -RA PROB30 TEMPO 1812/1815 3000 SHRA BKN015 FEW026CB

超过4000个机场的气象观测和天气预报(METAR&TAF报告)。

可查询的气象台以黄色和红色小点在地图上表示。

将鼠标移到小点上方,可查看气象台名称。

然后点击查看天气观测和预报。

如需切换地图:点击带黑十字的绿色按钮放大地图;点击带横线的绿色按钮缩小地图;或者点击绿色箭头查看邻近地区的地图。


METAR-TAF: